Time;durP1;ratioP1;P1;durP2;ratioP2;P2;SDS_P1;SDS_P2;PMS_P1;PMS_P2;Temp;Humidity;BMP_temperature;BMP_pressure;BME280_temperature;BME280_humidity;BME280_pressure;Samples;Min_cycle;Max_cycle;Signal;HPM_P1;HPM_P2
2021/03/16 00:00:21;;;;;;;4.28;2.33;;;4.70;94.50;;;;;;5089739;28;21025;-83
2021/03/16 00:02:47;;;;;;;2.97;2.13;;;4.70;94.40;;;;;;5088277;28;20247;-84
2021/03/16 00:05:15;;;;;;;2.75;2.55;;;4.70;94.30;;;;;;5088979;28;20606;-84
2021/03/16 00:07:41;;;;;;;6.75;3.03;;;4.50;93.70;;;;;;5089922;28;20535;-83
2021/03/16 00:10:09;;;;;;;4.00;2.30;;;4.60;94.00;;;;;;5089224;28;20195;-84
2021/03/16 00:12:35;;;;;;;8.00;2.80;;;4.60;93.70;;;;;;5088975;28;20682;-83
2021/03/16 00:15:01;;;;;;;2.78;2.58;;;4.60;93.70;;;;;;5089728;28;20195;-83
2021/03/16 00:17:28;;;;;;;5.78;2.33;;;4.40;93.30;;;;;;5088985;28;20659;-84
2021/03/16 00:19:54;;;;;;;1.98;1.88;;;4.40;93.70;;;;;;5090183;28;20997;-83
2021/03/16 00:22:22;;;;;;;3.78;3.25;;;4.40;93.40;;;;;;5089177;28;20222;-83
2021/03/16 00:24:48;;;;;;;2.88;2.58;;;4.30;93.80;;;;;;5089446;28;20190;-83
2021/03/16 00:27:14;;;;;;;4.35;2.83;;;4.60;94.10;;;;;;5090058;28;20195;-83
2021/03/16 00:29:41;;;;;;;3.63;2.83;;;4.60;93.50;;;;;;5089617;28;20629;-83
2021/03/16 00:32:07;;;;;;;11.63;4.25;;;4.40;93.60;;;;;;5090124;28;20201;-84
2021/03/16 00:34:34;;;;;;;4.20;3.38;;;4.40;94.00;;;;;;5088968;28;20551;-83
2021/03/16 00:37:00;;;;;;;5.25;2.75;;;4.60;94.10;;;;;;5090270;28;20561;-84
2021/03/16 00:39:28;;;;;;;3.33;2.60;;;4.40;93.30;;;;;;5089866;28;20218;-84
2021/03/16 00:41:54;;;;;;;5.85;3.10;;;4.30;94.00;;;;;;5090172;28;20600;-84
2021/03/16 00:44:21;;;;;;;3.30;2.80;;;4.30;94.10;;;;;;5088967;28;20187;-84
2021/03/16 00:46:47;;;;;;;3.75;2.90;;;4.30;93.90;;;;;;5089785;28;20211;-84
2021/03/16 00:49:14;;;;;;;3.13;2.53;;;4.30;93.70;;;;;;5088410;28;20210;-84
2021/03/16 00:51:41;;;;;;;4.63;2.67;;;4.30;93.70;;;;;;5089937;28;20202;-83
2021/03/16 00:54:07;;;;;;;3.63;2.65;;;4.30;93.40;;;;;;5089349;28;20195;-84
2021/03/16 00:56:34;;;;;;;4.20;2.65;;;4.30;93.50;;;;;;5090022;28;20187;-84
2021/03/16 00:59:01;;;;;;;3.50;2.60;;;4.30;93.20;;;;;;5091321;28;20199;-84
2021/03/16 01:01:27;;;;;;;5.38;2.45;;;4.20;92.40;;;;;;5089208;28;20210;-84
2021/03/16 01:03:54;;;;;;;3.10;2.20;;;4.00;92.00;;;;;;5089379;28;20213;-83
2021/03/16 01:06:20;;;;;;;4.40;3.30;;;4.10;92.60;;;;;;5089305;28;20199;-81
2021/03/16 01:08:46;;;;;;;7.97;2.85;;;4.00;92.50;;;;;;5089773;28;20191;-82
2021/03/16 01:11:13;;;;;;;3.72;2.40;;;4.00;92.30;;;;;;5089485;28;20191;-82
2021/03/16 01:13:40;;;;;;;3.25;2.80;;;3.90;92.10;;;;;;5089358;28;20190;-83
2021/03/16 01:16:07;;;;;;;4.00;2.30;;;3.90;92.40;;;;;;5089639;28;20207;-84
2021/03/16 01:18:34;;;;;;;5.18;3.17;;;3.80;92.50;;;;;;5092861;28;20214;-84
2021/03/16 01:21:00;;;;;;;3.00;2.72;;;3.80;92.50;;;;;;5093467;28;20218;-84
2021/03/16 01:23:27;;;;;;;5.88;4.43;;;3.80;92.70;;;;;;5092592;28;20191;-84
2021/03/16 01:25:53;;;;;;;7.97;3.58;;;3.80;92.90;;;;;;5093475;28;20195;-84
2021/03/16 01:28:27;;;;;;;4.88;3.60;;;3.80;93.40;;;;;;5098207;28;20195;-84
2021/03/16 01:30:54;;;;;;;5.68;4.90;;;3.80;93.40;;;;;;5101584;28;20216;-83
2021/03/16 01:33:21;;;;;;;10.25;3.65;;;3.80;93.50;;;;;;5093127;28;20207;-83
2021/03/16 01:35:47;;;;;;;5.72;3.55;;;3.90;93.50;;;;;;5093187;28;20240;-83
2021/03/16 01:38:14;;;;;;;4.55;3.30;;;3.90;93.80;;;;;;5093629;28;20201;-83
2021/03/16 01:40:42;;;;;;;6.10;3.60;;;3.90;94.00;;;;;;5093363;28;20201;-83
2021/03/16 01:43:11;;;;;;;3.88;3.33;;;3.90;94.00;;;;;;5092077;28;20702;-83
2021/03/16 01:45:39;;;;;;;6.25;3.00;;;3.90;94.10;;;;;;5093249;28;20187;-84
2021/03/16 01:48:07;;;;;;;3.33;3.03;;;4.10;94.20;;;;;;5093114;28;20194;-82
2021/03/16 01:50:35;;;;;;;6.60;3.03;;;3.90;93.90;;;;;;5091838;28;20190;-82
2021/03/16 01:53:02;;;;;;;4.55;2.35;;;3.80;94.30;;;;;;5092209;28;20191;-83
2021/03/16 01:55:29;;;;;;;4.43;3.45;;;3.80;94.50;;;;;;5092387;28;20190;-83
2021/03/16 01:57:57;;;;;;;7.03;3.35;;;3.90;94.50;;;;;;5093238;28;20675;-83
2021/03/16 02:00:25;;;;;;;3.35;3.05;;;3.70;94.50;;;;;;5092913;28;20553;-82
2021/03/16 02:02:52;;;;;;;4.45;2.67;;;3.80;94.70;;;;;;5091995;28;20191;-82
2021/03/16 02:05:20;;;;;;;4.55;3.30;;;3.70;94.80;;;;;;5092715;28;20199;-83
2021/03/16 02:07:56;;;;;;;5.38;3.22;;;3.70;94.90;;;;;;5092544;28;20678;-83
2021/03/16 02:10:32;;;;;;;4.38;3.05;;;3.70;95.10;;;;;;5092371;28;20198;-83
2021/03/16 02:13:04;;;;;;;4.18;3.45;;;3.90;95.20;;;;;;5092323;28;20213;-83
2021/03/16 02:15:35;;;;;;;5.97;3.63;;;3.90;94.90;;;;;;5092204;28;20195;-83
2021/03/16 02:18:08;;;;;;;3.17;2.88;;;3.90;95.00;;;;;;5092681;28;20658;-83
2021/03/16 02:20:54;;;;;;;4.55;4.10;;;3.90;95.10;;;;;;5091937;28;20772;-83
2021/03/16 02:23:32;;;;;;;5.75;2.90;;;3.80;95.20;;;;;;5091459;28;20206;-83
2021/03/16 02:26:14;;;;;;;6.43;3.97;;;3.70;95.20;;;;;;5091961;28;20198;-83
2021/03/16 02:29:13;;;;;;;3.58;3.28;;;3.70;95.20;;;;;;5091552;28;20675;-83
2021/03/16 02:31:47;;;;;;;3.33;2.80;;;3.70;95.30;;;;;;5056850;28;20684;-83
2021/03/16 02:34:17;;;;;;;4.15;3.17;;;3.70;95.50;;;;;;5091181;28;20244;-82
2021/03/16 02:36:47;;;;;;;5.53;3.85;;;3.70;95.30;;;;;;5092378;28;20280;-83
2021/03/16 02:39:16;;;;;;;4.03;3.63;;;3.70;95.40;;;;;;5090998;28;20201;-83
2021/03/16 02:41:49;;;;;;;5.68;3.78;;;3.70;95.60;;;;;;5092357;28;20695;-83
2021/03/16 02:44:16;;;;;;;4.07;3.67;;;3.80;95.60;;;;;;5091405;28;20202;-83
2021/03/16 02:46:47;;;;;;;4.63;3.45;;;3.80;95.50;;;;;;5091558;28;21037;-83
2021/03/16 02:49:16;;;;;;;7.18;3.72;;;3.70;95.40;;;;;;5093126;28;20202;-83
2021/03/16 02:51:45;;;;;;;5.30;3.30;;;3.80;95.70;;;;;;5086426;28;20198;-83
2021/03/16 02:54:13;;;;;;;5.68;4.18;;;3.80;95.50;;;;;;5084861;28;20198;-83
2021/03/16 02:56:42;;;;;;;5.00;4.40;;;3.80;95.40;;;;;;5092089;28;20237;-83
2021/03/16 02:59:13;;;;;;;7.13;3.85;;;3.70;95.50;;;;;;5091198;28;20553;-83
2021/03/16 03:01:43;;;;;;;7.07;2.72;;;3.70;95.90;;;;;;5091783;28;20279;-83
2021/03/16 03:04:12;;;;;;;4.40;3.22;;;3.70;95.50;;;;;;5090329;28;20203;-83
2021/03/16 03:06:41;;;;;;;4.65;3.30;;;3.80;95.40;;;;;;5091193;28;20198;-82
2021/03/16 03:09:12;;;;;;;3.90;3.58;;;3.70;95.70;;;;;;5092479;28;20232;-83
2021/03/16 03:11:39;;;;;;;4.07;3.38;;;3.70;95.90;;;;;;5091539;28;20226;-82
2021/03/16 03:14:08;;;;;;;3.25;2.92;;;3.60;96.20;;;;;;5091006;28;20289;-83
2021/03/16 03:16:35;;;;;;;3.85;2.60;;;3.70;96.60;;;;;;5090962;28;20193;-82
2021/03/16 03:19:02;;;;;;;5.05;3.30;;;3.70;96.30;;;;;;5091223;28;20203;-82
2021/03/16 03:21:34;;;;;;;4.75;3.35;;;3.60;96.40;;;;;;5091642;28;20313;-82
2021/03/16 03:24:05;;;;;;;4.25;2.95;;;3.60;96.10;;;;;;5091023;28;20198;-84
2021/03/16 03:26:41;;;;;;;11.23;3.15;;;3.70;96.10;;;;;;5071891;28;20432;-83
2021/03/16 03:29:10;;;;;;;14.40;3.50;;;3.70;95.80;;;;;;5089736;28;20467;-83
2021/03/16 03:31:38;;;;;;;5.28;3.25;;;3.50;96.00;;;;;;5092346;28;20224;-83
2021/03/16 03:34:06;;;;;;;8.30;3.42;;;3.30;96.20;;;;;;5090604;28;20187;-83
2021/03/16 03:36:37;;;;;;;5.65;2.70;;;3.40;96.30;;;;;;5091884;28;20281;-82
2021/03/16 03:39:05;;;;;;;5.15;2.80;;;3.50;96.30;;;;;;5092080;28;20198;-82
2021/03/16 03:41:34;;;;;;;4.95;3.05;;;3.50;96.30;;;;;;5091279;28;20221;-83
2021/03/16 03:44:01;;;;;;;3.50;3.15;;;3.50;96.50;;;;;;5090261;28;20194;-83
2021/03/16 03:46:31;;;;;;;3.65;3.05;;;3.50;96.60;;;;;;5090971;28;20197;-82
2021/03/16 03:48:58;;;;;;;9.40;4.28;;;3.50;96.80;;;;;;5090848;28;20206;-83
2021/03/16 03:51:26;;;;;;;3.17;2.88;;;3.40;96.60;;;;;;5091587;28;20598;-82
2021/03/16 03:53:54;;;;;;;5.72;3.58;;;3.40;96.80;;;;;;5090260;28;20894;-83
2021/03/16 03:56:20;;;;;;;5.00;3.55;;;3.30;96.80;;;;;;5090193;28;20551;-83
2021/03/16 03:58:48;;;;;;;6.65;2.70;;;3.30;96.70;;;;;;5090877;28;20597;-83
2021/03/16 04:01:15;;;;;;;4.03;3.63;;;3.20;96.40;;;;;;5090753;28;20219;-83
2021/03/16 04:03:41;;;;;;;6.35;3.67;;;3.30;96.50;;;;;;5089426;28;20225;-83
2021/03/16 04:06:23;;;;;;;6.65;3.95;;;3.40;96.30;;;;;;5095194;28;20187;-83
2021/03/16 04:09:04;;;;;;;4.13;2.90;;;3.50;96.20;;;;;;5103416;28;20199;-83
2021/03/16 04:11:31;;;;;;;6.10;3.80;;;3.40;95.50;;;;;;5101277;28;20663;-82
2021/03/16 04:14:00;;;;;;;5.57;3.15;;;3.40;95.50;;;;;;5098542;28;20225;-83
2021/03/16 04:16:27;;;;;;;5.40;2.60;;;3.40;95.60;;;;;;5098023;28;20190;-82
2021/03/16 04:18:55;;;;;;;5.97;3.03;;;3.40;95.80;;;;;;5090226;28;20260;-82
2021/03/16 04:21:21;;;;;;;2.72;1.90;;;3.40;95.60;;;;;;5090770;28;20218;-82
2021/03/16 04:23:48;;;;;;;5.80;2.78;;;3.40;95.80;;;;;;5091131;28;20202;-83
2021/03/16 04:26:15;;;;;;;3.92;2.35;;;3.50;96.60;;;;;;5089909;28;20194;-83
2021/03/16 04:28:41;;;;;;;8.85;2.50;;;3.50;96.20;;;;;;5090454;28;20202;-83
2021/03/16 04:31:09;;;;;;;2.78;2.45;;;3.40;96.30;;;;;;5090231;28;20671;-83
2021/03/16 04:33:35;;;;;;;2.45;2.25;;;3.30;96.30;;;;;;5089519;28;20218;-83
2021/03/16 04:36:02;;;;;;;3.20;1.83;;;3.30;95.90;;;;;;5090060;28;20197;-83
2021/03/16 04:38:28;;;;;;;3.47;2.42;;;3.30;95.50;;;;;;5090540;28;20244;-82
2021/03/16 04:40:55;;;;;;;3.95;2.20;;;3.20;95.90;;;;;;5090000;28;20705;-83
2021/03/16 04:43:22;;;;;;;2.15;1.90;;;3.20;95.90;;;;;;5089836;28;20194;-82
2021/03/16 04:45:48;;;;;;;5.43;2.70;;;3.30;95.90;;;;;;5089640;28;20186;-83
2021/03/16 04:48:15;;;;;;;2.35;2.15;;;3.50;95.80;;;;;;5089747;28;20300;-82
2021/03/16 04:50:41;;;;;;;3.13;1.95;;;3.50;95.20;;;;;;5087889;28;20672;-83
2021/03/16 04:53:07;;;;;;;2.83;1.80;;;3.40;95.20;;;;;;5090313;28;20199;-83
2021/03/16 04:55:34;;;;;;;2.78;1.83;;;3.30;95.00;;;;;;5093968;28;20198;-83
2021/03/16 04:58:01;;;;;;;2.25;1.90;;;3.40;95.10;;;;;;5094207;28;20328;-83
2021/03/16 05:00:28;;;;;;;2.03;1.83;;;3.40;95.20;;;;;;5093597;28;20195;-83
2021/03/16 05:02:55;;;;;;;3.45;2.40;;;3.50;95.20;;;;;;5093147;28;20234;-84
2021/03/16 05:05:21;;;;;;;3.35;2.03;;;3.50;95.00;;;;;;5095238;28;20675;-84
2021/03/16 05:07:48;;;;;;;6.03;3.22;;;3.50;94.80;;;;;;5094380;28;20202;-83
2021/03/16 05:10:15;;;;;;;2.30;2.00;;;3.40;94.80;;;;;;5094088;28;20583;-84
2021/03/16 05:12:42;;;;;;;2.63;2.10;;;3.40;95.00;;;;;;5093274;28;20195;-83
2021/03/16 05:15:09;;;;;;;2.88;2.17;;;3.40;94.90;;;;;;5094199;28;20194;-83
2021/03/16 05:17:36;;;;;;;2.88;1.85;;;3.40;94.80;;;;;;5093852;28;21004;-83
2021/03/16 05:20:03;;;;;;;2.90;2.22;;;3.40;94.90;;;;;;5094571;28;20203;-83
2021/03/16 05:22:30;;;;;;;3.70;2.10;;;3.30;94.70;;;;;;5092300;28;20707;-84
2021/03/16 05:24:57;;;;;;;5.35;2.40;;;3.30;94.90;;;;;;5093423;28;20206;-83
2021/03/16 05:27:23;;;;;;;3.20;2.10;;;3.40;94.80;;;;;;5093299;28;20202;-83
2021/03/16 05:29:49;;;;;;;3.20;1.90;;;3.30;94.80;;;;;;5093376;28;20766;-82
2021/03/16 05:32:16;;;;;;;2.17;1.95;;;3.30;95.10;;;;;;5093286;28;20248;-83
2021/03/16 05:34:43;;;;;;;3.20;2.15;;;3.20;95.20;;;;;;5093436;28;20210;-83
2021/03/16 05:37:10;;;;;;;3.92;2.10;;;3.20;95.10;;;;;;5094827;28;20195;-83
2021/03/16 05:39:36;;;;;;;6.85;2.30;;;3.30;95.30;;;;;;5094271;28;20207;-82
2021/03/16 05:42:03;;;;;;;5.10;1.90;;;3.30;95.40;;;;;;5093632;28;20691;-82
2021/03/16 05:44:29;;;;;;;5.85;3.70;;;3.40;94.90;;;;;;5092785;28;20202;-82
2021/03/16 05:46:56;;;;;;;9.50;2.30;;;3.40;94.80;;;;;;5093533;28;20198;-83
2021/03/16 05:49:24;;;;;;;3.30;1.90;;;3.40;94.80;;;;;;5094347;28;20194;-83
2021/03/16 05:51:51;;;;;;;4.18;1.80;;;3.40;94.90;;;;;;5095962;28;20343;-83
2021/03/16 05:54:17;;;;;;;2.58;2.13;;;3.40;94.80;;;;;;5093587;28;20214;-83
2021/03/16 05:56:44;;;;;;;5.65;2.67;;;3.40;95.10;;;;;;5095521;28;20264;-83
2021/03/16 05:59:11;;;;;;;4.57;2.50;;;3.50;94.80;;;;;;5092802;28;20195;-83
2021/03/16 06:01:37;;;;;;;7.10;3.45;;;3.40;94.60;;;;;;5094850;28;20288;-83
2021/03/16 06:04:04;;;;;;;2.65;2.40;;;3.30;94.70;;;;;;5092466;28;20191;-84
2021/03/16 06:06:31;;;;;;;2.72;2.35;;;3.40;95.00;;;;;;5094735;28;20486;-83
2021/03/16 06:08:59;;;;;;;5.45;2.92;;;3.40;94.90;;;;;;5094139;28;20202;-83
2021/03/16 06:11:25;;;;;;;3.38;2.30;;;3.40;94.80;;;;;;5094048;28;20219;-84
2021/03/16 06:13:53;;;;;;;5.25;2.80;;;3.50;94.90;;;;;;5099465;28;20194;-84
2021/03/16 06:16:20;;;;;;;3.15;1.75;;;3.50;94.80;;;;;;5094564;28;20594;-84
2021/03/16 06:18:47;;;;;;;8.32;2.70;;;3.40;94.70;;;;;;5094662;28;20549;-83
2021/03/16 06:21:18;;;;;;;3.80;2.55;;;3.40;94.60;;;;;;5093827;28;20609;-84
2021/03/16 06:23:53;;;;;;;4.60;3.20;;;3.40;94.60;;;;;;5093002;28;20195;-84
2021/03/16 06:26:20;;;;;;;9.05;3.10;;;3.40;94.90;;;;;;5090906;28;20676;-83
2021/03/16 06:28:47;;;;;;;6.65;2.60;;;3.50;94.90;;;;;;5094988;28;20228;-83
2021/03/16 06:31:22;;;;;;;6.90;3.33;;;3.40;94.70;;;;;;5092187;28;20203;-83
2021/03/16 06:33:48;;;;;;;10.68;3.25;;;3.50;94.90;;;;;;5080392;28;20245;-83
2021/03/16 06:36:15;;;;;;;4.85;3.95;;;3.60;94.80;;;;;;5089349;28;20198;-84
2021/03/16 06:38:42;;;;;;;14.55;3.00;;;3.50;94.70;;;;;;5091211;28;20289;-82
2021/03/16 06:41:11;;;;;;;8.52;3.70;;;3.50;94.80;;;;;;5092312;28;20241;-83
2021/03/16 06:43:38;;;;;;;9.13;3.67;;;3.60;94.80;;;;;;5093406;28;20201;-85
2021/03/16 06:46:05;;;;;;;11.75;3.72;;;3.70;94.80;;;;;;5092958;28;20194;-84
2021/03/16 06:48:34;;;;;;;4.32;3.13;;;3.60;94.60;;;;;;5093281;28;20191;-84
2021/03/16 06:51:09;;;;;;;8.15;3.22;;;3.70;94.80;;;;;;5093657;28;20250;-83
2021/03/16 06:53:36;;;;;;;5.78;3.38;;;3.70;94.80;;;;;;5093293;28;20198;-84
2021/03/16 06:56:03;;;;;;;5.72;3.10;;;3.80;94.90;;;;;;5092845;28;21049;-84
2021/03/16 06:58:31;;;;;;;6.82;3.30;;;3.90;94.90;;;;;;5095714;28;20211;-83
2021/03/16 07:01:06;;;;;;;3.28;2.15;;;3.80;94.60;;;;;;5095373;28;20251;-83
2021/03/16 07:03:32;;;;;;;3.45;2.28;;;3.60;94.80;;;;;;5093986;28;20194;-83
2021/03/16 07:06:10;;;;;;;4.15;2.70;;;3.70;95.20;;;;;;5095586;28;20191;-83
2021/03/16 07:08:37;;;;;;;5.20;2.60;;;3.60;95.20;;;;;;5094710;28;20191;-83
2021/03/16 07:11:05;;;;;;;3.65;3.10;;;3.60;95.40;;;;;;5097238;28;20194;-83
2021/03/16 07:13:33;;;;;;;5.43;3.20;;;3.70;95.50;;;;;;5095547;28;20566;-83
2021/03/16 07:16:00;;;;;;;4.85;3.35;;;3.80;95.60;;;;;;5096406;28;20195;-83
2021/03/16 07:18:28;;;;;;;6.10;2.60;;;3.70;95.40;;;;;;5095599;28;20672;-84
2021/03/16 07:20:58;;;;;;;5.18;3.15;;;3.60;95.70;;;;;;5095581;28;20202;-83
2021/03/16 07:23:25;;;;;;;7.63;3.10;;;3.60;96.20;;;;;;5095239;28;20194;-84
2021/03/16 07:25:54;;;;;;;4.18;2.30;;;3.50;96.80;;;;;;5095863;28;20182;-86
2021/03/16 07:28:21;;;;;;;3.60;2.10;;;3.60;97.30;;;;;;5095886;28;20224;-87
2021/03/16 07:30:50;;;;;;;5.43;3.10;;;3.40;97.50;;;;;;5095600;28;20194;-86
2021/03/16 07:33:17;;;;;;;8.63;4.05;;;3.30;98.00;;;;;;5094696;28;20219;-85
2021/03/16 07:35:45;;;;;;;6.97;3.10;;;3.20;98.40;;;;;;5097400;28;20198;-85
2021/03/16 07:38:13;;;;;;;8.10;2.65;;;3.20;98.60;;;;;;5096772;28;20202;-86
2021/03/16 07:40:41;;;;;;;5.32;3.42;;;3.20;98.80;;;;;;5096350;28;20190;-84
2021/03/16 07:43:10;;;;;;;9.30;2.90;;;3.20;99.00;;;;;;5094375;28;20219;-85
2021/03/16 07:45:37;;;;;;;3.00;2.65;;;3.20;98.90;;;;;;5092814;28;20222;-84
2021/03/16 07:48:15;;;;;;;3.63;2.10;;;3.30;98.90;;;;;;5092840;28;20190;-84
2021/03/16 07:50:42;;;;;;;6.07;2.95;;;3.40;98.60;;;;;;5093969;28;20251;-85
2021/03/16 07:53:10;;;;;;;6.65;2.90;;;3.50;98.40;;;;;;5094020;28;20251;-85
2021/03/16 07:55:37;;;;;;;6.68;2.70;;;3.60;98.20;;;;;;5095375;28;20191;-85
2021/03/16 07:58:08;;;;;;;5.85;3.22;;;3.70;98.40;;;;;;5096098;28;20289;-86
2021/03/16 08:00:35;;;;;;;6.97;6.28;;;3.90;98.30;;;;;;5095513;28;20224;-86
2021/03/16 08:03:03;;;;;;;4.15;2.72;;;4.10;98.10;;;;;;5092403;28;20279;-86
2021/03/16 08:05:40;;;;;;;4.90;2.65;;;4.30;97.80;;;;;;5094024;28;20227;-85
2021/03/16 08:08:15;;;;;;;8.15;3.50;;;4.30;96.90;;;;;;5094073;28;20652;-85
2021/03/16 08:10:42;;;;;;;3.40;3.00;;;4.20;96.80;;;;;;5094252;28;20194;-86
2021/03/16 08:13:14;;;;;;;3.95;2.47;;;4.20;96.80;;;;;;5093170;28;20568;-86
2021/03/16 08:15:43;;;;;;;4.18;3.38;;;4.50;97.00;;;;;;5094189;28;20187;-85
2021/03/16 08:18:10;;;;;;;3.17;2.83;;;4.60;96.30;;;;;;5093662;28;20206;-85
2021/03/16 08:20:38;;;;;;;10.02;3.30;;;4.60;95.60;;;;;;5092905;28;20233;-85
2021/03/16 08:23:07;;;;;;;5.05;3.30;;;4.40;95.20;;;;;;5090576;28;20252;-86
2021/03/16 08:25:35;;;;;;;4.60;3.47;;;4.40;94.90;;;;;;5091848;28;20198;-85
2021/03/16 08:28:07;;;;;;;6.07;3.42;;;4.40;95.10;;;;;;5092895;28;20195;-86
2021/03/16 08:30:36;;;;;;;6.05;2.83;;;4.50;94.90;;;;;;5092090;28;20198;-86
2021/03/16 08:33:14;;;;;;;5.88;3.65;;;4.30;94.60;;;;;;5092943;28;20253;-86
2021/03/16 08:35:46;;;;;;;6.40;4.50;;;4.40;94.80;;;;;;5085197;28;20210;-86
2021/03/16 08:38:21;;;;;;;5.28;3.50;;;4.50;95.20;;;;;;5093878;28;20288;-86
2021/03/16 08:40:49;;;;;;;7.07;3.58;;;4.70;95.00;;;;;;5093549;28;20190;-87
2021/03/16 08:43:16;;;;;;;3.30;3.03;;;4.70;94.70;;;;;;5092576;28;20290;-86
2021/03/16 08:45:45;;;;;;;7.97;3.35;;;4.60;94.60;;;;;;5093283;28;20438;-86
2021/03/16 08:48:12;;;;;;;5.40;3.22;;;4.70;94.40;;;;;;5093238;28;20533;-86
2021/03/16 08:50:39;;;;;;;5.53;3.88;;;4.70;94.60;;;;;;5092771;28;20187;-85
2021/03/16 08:53:06;;;;;;;3.58;3.08;;;4.70;95.00;;;;;;5092073;28;20600;-85
2021/03/16 08:55:32;;;;;;;5.15;3.72;;;4.60;94.60;;;;;;5091895;28;20240;-86
2021/03/16 08:58:00;;;;;;;4.00;2.90;;;4.50;94.60;;;;;;5094135;28;20256;-86
2021/03/16 09:00:30;;;;;;;9.50;3.75;;;4.50;94.60;;;;;;5092862;28;20699;-86
2021/03/16 09:02:56;;;;;;;9.45;5.20;;;4.50;95.00;;;;;;5092654;28;20222;-86
2021/03/16 09:05:26;;;;;;;8.15;3.90;;;4.50;94.80;;;;;;5094260;28;20222;-86
2021/03/16 09:07:58;;;;;;;4.35;3.58;;;4.50;94.80;;;;;;5094893;28;20191;-85
2021/03/16 09:10:51;;;;;;;6.57;4.10;;;4.50;94.70;;;;;;5096474;28;20190;-87
2021/03/16 09:13:28;;;;;;;4.72;3.60;;;4.60;95.00;;;;;;5094318;28;20257;-85
2021/03/16 09:15:55;;;;;;;9.63;4.13;;;4.50;94.50;;;;;;5093226;28;20191;-85
2021/03/16 09:18:22;;;;;;;8.48;4.05;;;4.50;94.90;;;;;;5093012;28;20191;-86
2021/03/16 09:20:50;;;;;;;7.00;4.28;;;4.50;94.90;;;;;;5093778;28;20198;-86
2021/03/16 09:23:17;;;;;;;5.95;3.33;;;4.40;95.20;;;;;;5092358;28;20585;-87
2021/03/16 09:25:45;;;;;;;6.50;4.10;;;4.30;95.70;;;;;;5092983;28;20733;-86
2021/03/16 09:28:14;;;;;;;4.05;3.08;;;4.20;96.30;;;;;;5093131;28;20748;-86
2021/03/16 09:30:44;;;;;;;6.35;5.00;;;4.20;96.80;;;;;;5092950;28;20236;-85
2021/03/16 09:33:13;;;;;;;4.88;4.30;;;4.20;96.50;;;;;;5091866;28;20199;-86
2021/03/16 09:35:39;;;;;;;8.95;4.25;;;4.20;96.70;;;;;;5087483;28;20700;-85
2021/03/16 09:38:07;;;;;;;5.40;4.20;;;4.20;97.00;;;;;;5093638;28;20679;-85
2021/03/16 09:40:39;;;;;;;6.80;5.70;;;4.20;97.90;;;;;;5096645;28;20202;-84
2021/03/16 09:43:17;;;;;;;10.93;4.68;;;4.10;98.90;;;;;;5095849;28;20222;-84
2021/03/16 09:45:53;;;;;;;4.07;3.70;;;3.80;99.50;;;;;;5096676;28;20545;-84
2021/03/16 09:48:20;;;;;;;4.47;3.25;;;3.50;99.90;;;;;;5095885;28;20209;-85
2021/03/16 09:50:48;;;;;;;6.97;4.13;;;3.50;99.90;;;;;;5095906;28;20252;-86
2021/03/16 09:53:15;;;;;;;5.50;4.40;;;3.60;99.90;;;;;;5094310;28;20199;-85
2021/03/16 09:55:42;;;;;;;10.70;4.25;;;3.50;99.90;;;;;;5095310;28;20236;-86
2021/03/16 09:58:19;;;;;;;6.28;4.18;;;3.70;99.90;;;;;;5095976;28;20198;-84
2021/03/16 10:00:51;;;;;;;8.05;4.70;;;3.90;99.90;;;;;;5095113;28;20202;-86
2021/03/16 10:03:20;;;;;;;5.63;4.30;;;4.20;99.90;;;;;;5095178;28;20580;-85
2021/03/16 10:05:47;;;;;;;7.15;5.35;;;4.50;99.90;;;;;;5095582;28;21038;-86
2021/03/16 10:08:22;;;;;;;9.55;6.18;;;4.50;99.90;;;;;;5095985;28;20186;-86
2021/03/16 10:14:07;;;;;;;5.97;4.78;;;5.20;99.90;;;;;;5093612;28;20198;-87
2021/03/16 10:16:35;;;;;;;4.57;4.15;;;5.20;99.90;;;;;;5095755;28;20275;-87
2021/03/16 10:19:31;;;;;;;5.28;4.32;;;5.30;99.90;;;;;;5095780;28;20198;-87
2021/03/16 10:21:59;;;;;;;8.10;4.38;;;5.30;99.90;;;;;;5055417;28;20270;-87
2021/03/16 10:24:27;;;;;;;10.60;5.32;;;5.20;98.50;;;;;;5095390;28;20195;-87
2021/03/16 10:26:58;;;;;;;4.72;4.10;;;5.10;98.90;;;;;;5076046;28;20312;-87
2021/03/16 10:29:28;;;;;;;13.45;5.85;;;5.00;99.30;;;;;;5084512;28;20251;-87
2021/03/16 10:31:54;;;;;;;6.97;5.30;;;5.20;99.90;;;;;;5095582;28;20331;-86
2021/03/16 10:34:21;;;;;;;12.93;5.15;;;5.10;99.90;;;;;;5090120;28;20199;-86
2021/03/16 10:36:47;;;;;;;7.35;4.60;;;5.10;99.70;;;;;;5095223;28;20195;-86
2021/03/16 10:39:15;;;;;;;11.70;5.10;;;5.10;99.90;;;;;;5094295;28;20232;-86
2021/03/16 10:41:41;;;;;;;10.80;4.85;;;5.10;99.50;;;;;;5091628;28;20207;-86
2021/03/16 10:44:08;;;;;;;7.75;5.00;;;5.00;99.20;;;;;;5095161;28;20203;-87
2021/03/16 10:46:35;;;;;;;10.73;4.40;;;5.00;99.40;;;;;;5094776;28;20591;-87
2021/03/16 10:49:02;;;;;;;6.10;4.10;;;5.20;98.80;;;;;;5094872;28;20228;-86
2021/03/16 10:51:29;;;;;;;8.15;4.95;;;5.30;97.60;;;;;;5094779;28;20190;-87
2021/03/16 10:53:55;;;;;;;10.57;4.00;;;5.50;97.70;;;;;;5094478;28;20198;-87
2021/03/16 10:56:22;;;;;;;5.70;4.25;;;5.80;97.00;;;;;;5095223;28;20194;-88
2021/03/16 10:58:49;;;;;;;7.85;3.97;;;5.70;95.80;;;;;;5095293;28;20187;-87
2021/03/16 11:01:15;;;;;;;6.43;4.97;;;5.90;96.40;;;;;;5093849;28;20206;-88
2021/03/16 11:03:42;;;;;;;7.82;5.03;;;6.00;96.10;;;;;;5091234;28;20186;-88
2021/03/16 11:06:09;;;;;;;7.82;5.00;;;6.20;95.90;;;;;;5094295;28;20190;-87
2021/03/16 11:08:35;;;;;;;3.53;3.22;;;6.00;96.40;;;;;;5094140;28;20217;-88
2021/03/16 11:11:03;;;;;;;13.13;5.80;;;5.90;95.90;;;;;;5094348;28;20195;-87
2021/03/16 11:13:34;;;;;;;9.25;3.92;;;6.00;95.10;;;;;;5094739;28;20194;-87
2021/03/16 11:16:29;;;;;;;7.10;3.85;;;6.10;95.50;;;;;;5090018;28;20202;-88
2021/03/16 11:19:39;;;;;;;9.52;4.47;;;5.90;94.50;;;;;;5096517;28;20271;-88
2021/03/16 11:22:06;;;;;;;5.45;3.78;;;6.10;94.50;;;;;;5078200;28;20239;-86
2021/03/16 11:24:33;;;;;;;4.00;3.30;;;6.20;94.60;;;;;;5092408;28;20213;-87
2021/03/16 11:27:00;;;;;;;5.88;3.25;;;6.20;93.90;;;;;;5094717;28;20187;-87
2021/03/16 11:29:30;;;;;;;5.95;3.55;;;6.30;94.10;;;;;;5093756;28;20580;-88
2021/03/16 11:31:59;;;;;;;7.45;3.60;;;6.10;93.50;;;;;;5093996;28;20206;-87
2021/03/16 11:34:25;;;;;;;4.75;3.35;;;5.90;91.80;;;;;;5093691;28;20187;-87
2021/03/16 11:36:52;;;;;;;7.10;4.50;;;5.80;92.40;;;;;;5093930;28;20194;-87
2021/03/16 11:39:18;;;;;;;8.32;4.00;;;5.60;93.30;;;;;;5106738;28;20281;-87
2021/03/16 11:41:45;;;;;;;13.35;8.57;;;5.50;92.90;;;;;;5111133;28;20229;-87
2021/03/16 11:44:14;;;;;;;10.70;7.57;;;5.20;93.60;;;;;;5094507;28;20193;-88
2021/03/16 11:46:42;;;;;;;5.97;4.32;;;5.30;94.20;;;;;;5095009;28;20186;-88
2021/03/16 11:49:08;;;;;;;11.63;5.32;;;5.20;94.20;;;;;;5094313;28;20195;-88
2021/03/16 11:51:35;;;;;;;4.45;3.80;;;5.20;94.60;;;;;;5094782;28;20231;-87
2021/03/16 11:54:02;;;;;;;9.48;4.07;;;5.10;94.10;;;;;;5092670;28;20656;-87
2021/03/16 11:56:28;;;;;;;5.32;4.80;;;5.20;94.40;;;;;;5093893;28;20244;-88
2021/03/16 11:58:55;;;;;;;4.18;3.20;;;5.50;94.50;;;;;;5094653;28;20194;-87
2021/03/16 12:01:22;;;;;;;6.13;4.78;;;5.50;94.10;;;;;;5092855;28;20191;-88
2021/03/16 12:03:49;;;;;;;6.25;3.58;;;5.40;93.50;;;;;;5095198;28;20244;-88
2021/03/16 12:06:16;;;;;;;3.40;2.90;;;5.70;93.50;;;;;;5094313;28;20554;-88
2021/03/16 12:08:43;;;;;;;4.07;2.67;;;5.60;92.20;;;;;;5093163;28;20195;-87
2021/03/16 12:11:10;;;;;;;7.10;4.07;;;5.60;92.00;;;;;;5094178;28;20323;-87
2021/03/16 12:13:36;;;;;;;5.53;3.13;;;5.80;91.90;;;;;;5093371;28;20535;-88
2021/03/16 12:16:03;;;;;;;4.47;2.95;;;5.80;90.80;;;;;;5094885;28;20206;-88
2021/03/16 12:18:30;;;;;;;5.47;3.25;;;6.00;91.10;;;;;;5093350;28;20210;-88
2021/03/16 12:20:58;;;;;;;6.50;3.25;;;6.20;90.80;;;;;;5093922;28;20241;-87
2021/03/16 12:23:25;;;;;;;5.55;4.65;;;6.40;89.90;;;;;;5093444;28;20233;-88
2021/03/16 12:25:53;;;;;;;3.45;3.15;;;6.70;90.30;;;;;;5093644;28;20190;-87
2021/03/16 12:28:20;;;;;;;4.80;3.33;;;6.80;87.40;;;;;;5093782;28;20191;-88
2021/03/16 12:30:47;;;;;;;7.80;3.83;;;6.60;86.30;;;;;;5094077;28;20201;-87
2021/03/16 12:33:15;;;;;;;5.50;2.90;;;6.50;86.20;;;;;;5093449;28;20208;-87
2021/03/16 12:35:42;;;;;;;3.63;2.90;;;6.20;81.40;;;;;;5092779;28;20210;-87
2021/03/16 12:38:09;;;;;;;5.63;2.85;;;6.00;83.80;;;;;;5093817;28;20667;-87
2021/03/16 12:40:36;;;;;;;8.27;3.67;;;6.10;82.80;;;;;;5093889;28;20194;-88
2021/03/16 12:43:06;;;;;;;5.30;3.28;;;6.30;83.40;;;;;;5092565;28;20221;-88
2021/03/16 12:45:33;;;;;;;6.80;2.35;;;6.30;82.00;;;;;;5093111;28;20614;-87
2021/03/16 12:48:00;;;;;;;4.28;3.15;;;6.40;79.50;;;;;;5093882;28;20555;-88
2021/03/16 12:50:27;;;;;;;4.63;3.30;;;6.70;76.50;;;;;;5093610;28;20194;-87
2021/03/16 12:52:53;;;;;;;2.90;2.22;;;6.80;76.80;;;;;;5093055;28;20251;-88
2021/03/16 12:55:21;;;;;;;3.20;2.55;;;6.70;74.80;;;;;;5093548;28;20268;-87
2021/03/16 12:57:48;;;;;;;4.28;2.50;;;6.80;75.40;;;;;;5092857;28;20206;-87
2021/03/16 13:00:15;;;;;;;4.22;2.47;;;7.00;76.90;;;;;;5092712;28;20210;-88
2021/03/16 13:02:42;;;;;;;3.65;3.33;;;7.10;74.10;;;;;;5092844;28;20295;-87
2021/03/16 13:05:12;;;;;;;4.20;2.67;;;6.90;72.70;;;;;;5093076;28;20240;-88